EETU

Tartu Airport

Tartu, Estonia
METAR EETU 201850Z AUTO 22006KT 2000 RA FEW009/// SCT018/// BKN024/// 18/18 Q1001 RERA
Observed Flight Rules
Aug-20 @ 18:50 UTC (19 hours ago) Instrument Flight Rules
Wind Visibility Clouds Conditions
220° at 6 knots 1,996 meters
  • Few at 900' AGL
  • Scattered at 1,800' AGL
  • Broken at 2,400' AGL
  • Rain
Temperatures Readings
Current 18°C / 64°F
Dewpoint 18°C / 64°F
Humidity 100%
Altimeter 29.56" Hg
Pressure 1001 hPa
Elevation 67
METAR EETU 201850Z AUTO 22006KT 2000 RA FEW009/// SCT018/// BKN024/// 18/18 Q1001 RERA
Observed Flight Rules
Aug-20 @ 18:50 UTC
(19 hours ago)
IFR
Wind Visibility
220° at 6 knots 1,996 meters
Clouds
  • Few at 900' AGL
  • Scattered at 1,800' AGL
  • Broken at 2,400' AGL
Conditions
  • Rain
Temperature Dewpoint
18°C / 64°F 18°C / 64°F
Humidity Altimeter Pressure
100% 29.56" Hg 1001 hPa